Time;durP1;ratioP1;P1;durP2;ratioP2;P2;SDS_P1;SDS_P2;PMS_P1;PMS_P2;Temp;Humidity;BMP_temperature;BMP_pressure;BME280_temperature;BME280_humidity;BME280_pressure;Samples;Min_cycle;Max_cycle;Signal;HPM_P1;HPM_P2
2022/06/18 00:00:37;;;;;;;4.32;2.60;;;;;;;22.05;55.79;101695.16;5010843;28;20508;-79
2022/06/18 00:03:03;;;;;;;7.00;2.50;;;;;;;21.99;56.07;101685.88;5003971;28;20030;-79
2022/06/18 00:05:32;;;;;;;4.40;2.35;;;;;;;21.96;55.83;101688.94;5013116;28;20649;-79
2022/06/18 00:07:58;;;;;;;6.05;2.33;;;;;;;21.93;56.17;101690.13;5006358;28;20124;-78
2022/06/18 00:10:29;;;;;;;4.88;2.55;;;;;;;21.86;56.55;101689.13;5011108;28;20071;-79
2022/06/18 00:15:41;;;;;;;6.75;2.70;;;;;;;21.75;56.51;101684.91;5001907;28;20045;-79
2022/06/18 00:18:12;;;;;;;4.65;2.63;;;;;;;21.74;56.70;101674.28;5013324;28;20054;-78
2022/06/18 00:20:39;;;;;;;7.75;3.75;;;;;;;21.70;57.45;101678.31;4994986;28;20033;-79
2022/06/18 00:23:13;;;;;;;5.25;2.70;;;;;;;21.67;57.12;101678.69;5000934;28;20030;-79
2022/06/18 00:25:42;;;;;;;7.80;3.00;;;;;;;21.60;57.52;101676.66;5007162;28;20057;-79
2022/06/18 00:28:13;;;;;;;3.88;2.33;;;;;;;21.60;57.34;101673.09;4985681;28;20046;-78
2022/06/18 00:30:39;;;;;;;3.53;2.45;;;;;;;21.55;57.02;101673.63;5008003;28;20527;-78
2022/06/18 00:33:05;;;;;;;3.05;2.45;;;;;;;21.51;57.88;101674.94;4999384;28;20125;-79
2022/06/18 00:35:33;;;;;;;2.95;2.38;;;;;;;21.47;58.33;101670.91;5013362;28;20168;-79
2022/06/18 00:38:00;;;;;;;3.55;2.22;;;;;;;21.46;58.39;101671.88;5003500;28;20068;-78
2022/06/18 00:40:29;;;;;;;3.78;2.35;;;;;;;21.43;58.30;101672.22;4998981;28;20066;-79
2022/06/18 00:42:59;;;;;;;3.05;2.20;;;;;;;21.35;58.12;101670.38;5002307;28;20033;-78
2022/06/18 00:45:28;;;;;;;3.63;2.80;;;;;;;21.36;58.58;101674.75;5006799;28;20026;-79
2022/06/18 00:48:02;;;;;;;;;;;;;;;21.47;56.18;101670.91;5008753;28;20038;-79
2022/06/18 00:50:35;;;;;;;3.40;2.45;;;;;;;21.28;58.95;101666.63;5004750;28;20005;-79
2022/06/18 00:53:03;;;;;;;5.32;2.50;;;;;;;21.24;59.46;101663.44;5012321;28;20037;-79
2022/06/18 00:55:40;;;;;;;3.43;2.53;;;;;;;21.23;59.00;101663.59;5006043;28;20397;-79
2022/06/18 00:58:12;;;;;;;5.22;2.67;;;;;;;21.17;59.47;101665.13;5007880;28;20356;-79
2022/06/18 01:00:42;;;;;;;6.68;2.80;;;;;;;21.15;59.76;101674.41;5013674;28;20030;-79
2022/06/18 01:03:23;;;;;;;4.15;2.65;;;;;;;21.15;58.63;101674.41;5011544;28;20033;-78
2022/06/18 01:05:52;;;;;;;5.75;2.78;;;;;;;21.07;60.05;101667.16;5004547;28;20057;-78
2022/06/18 01:08:20;;;;;;;5.18;3.00;;;;;;;21.03;60.14;101668.47;5012874;28;20093;-79
2022/06/18 01:10:50;;;;;;;3.35;3.05;;;;;;;21.01;60.69;101659.69;5012690;28;20021;-78
2022/06/18 01:13:20;;;;;;;8.18;3.00;;;;;;;20.97;60.11;101658.34;5016962;28;20458;-78
2022/06/18 01:15:46;;;;;;;4.03;2.92;;;;;;;20.93;60.77;101652.41;5008552;28;20084;-79
2022/06/18 01:18:13;;;;;;;7.80;3.28;;;;;;;20.94;61.17;101654.13;4986851;28;20372;-78
2022/06/18 01:20:48;;;;;;;5.35;3.03;;;;;;;20.91;60.68;101645.50;5011016;28;20026;-78
2022/06/18 01:23:39;;;;;;;4.05;2.90;;;;;;;20.89;59.78;101648.38;4995952;28;20018;-78
2022/06/18 01:26:06;;;;;;;4.85;2.97;;;;;;;20.85;61.10;101641.59;5010301;28;20422;-79
2022/06/18 01:28:31;;;;;;;3.42;3.13;;;;;;;20.83;61.48;101641.78;5016366;28;20022;-79
2022/06/18 01:30:56;;;;;;;4.37;3.13;;;;;;;20.80;61.34;101643.94;5007184;28;20037;-80
2022/06/18 01:33:22;;;;;;;5.75;3.13;;;;;;;20.76;61.59;101654.25;5015312;28;20777;-78
2022/06/18 01:35:51;;;;;;;4.03;2.90;;;;;;;20.71;62.28;101653.91;5015984;28;20110;-79
2022/06/18 01:38:16;;;;;;;4.97;3.20;;;;;;;;;;5016412;28;20434;-79
2022/06/18 01:40:51;;;;;;;4.78;3.13;;;;;;;20.71;62.44;101662.00;5016363;28;20072;-79
2022/06/18 01:43:18;;;;;;;4.05;3.05;;;;;;;20.67;62.44;101655.25;4998718;28;20025;-79
2022/06/18 01:45:50;;;;;;;5.47;3.22;;;;;;;20.62;62.32;101649.47;5015921;28;20041;-79
2022/06/18 01:48:34;;;;;;;4.53;3.60;;;;;;;20.61;61.91;101647.75;5010120;28;20113;-78
2022/06/18 01:51:05;;;;;;;4.72;3.17;;;;;;;20.55;62.62;101653.81;5011056;28;20036;-78
2022/06/18 01:53:37;;;;;;;5.82;3.00;;;;;;;20.52;62.47;101642.34;4997866;28;20121;-78
2022/06/18 01:56:09;;;;;;;5.82;3.88;;;;;;;20.50;62.43;101654.28;5007231;28;20042;-78
2022/06/18 01:58:41;;;;;;;7.28;3.60;;;;;;;20.42;62.91;101649.72;5012154;28;20033;-79
2022/06/18 02:01:13;;;;;;;4.00;3.20;;;;;;;20.40;62.85;101651.75;5015748;28;20069;-78
2022/06/18 02:03:39;;;;;;;6.00;3.50;;;;;;;20.39;63.20;101641.94;5012098;28;20029;-79
2022/06/18 02:06:05;;;;;;;7.43;3.25;;;;;;;20.37;63.71;101646.69;5000783;28;20055;-79
2022/06/18 02:08:30;;;;;;;4.32;3.55;;;;;;;20.38;63.13;101644.81;5013959;28;20483;-79
2022/06/18 02:11:00;;;;;;;8.02;3.72;;;;;;;20.29;64.38;101641.25;5010044;28;20077;-79
2022/06/18 02:13:34;;;;;;;3.85;3.40;;;;;;;20.28;63.70;101642.25;5005844;28;20076;-79
2022/06/18 02:16:02;;;;;;;9.82;3.95;;;;;;;20.24;64.08;101635.50;5014076;28;20080;-79
2022/06/18 02:18:29;;;;;;;6.72;3.20;;;;;;;20.25;64.01;101635.34;5009856;28;20490;-79
2022/06/18 02:20:59;;;;;;;4.60;3.25;;;;;;;20.22;64.02;101634.81;5016267;28;20045;-79
2022/06/18 02:23:25;;;;;;;4.03;3.30;;;;;;;20.17;64.31;101639.81;5013485;28;20445;-79
2022/06/18 02:25:51;;;;;;;4.07;3.67;;;;;;;20.14;64.23;101636.44;5020175;28;20056;-79
2022/06/18 02:28:30;;;;;;;7.50;3.72;;;;;;;20.15;63.69;101640.84;5011134;28;20065;-78
2022/06/18 02:31:00;;;;;;;;;;;;;;;20.24;61.69;101644.41;5011183;28;20165;-80
2022/06/18 02:33:41;;;;;;;11.35;3.92;;;;;;;20.09;64.17;101641.47;5015137;28;20357;-78
2022/06/18 02:36:21;;;;;;;8.20;4.10;;;;;;;20.11;63.46;101638.63;5015175;28;20084;-78
2022/06/18 02:38:47;;;;;;;5.07;3.97;;;;;;;20.04;64.63;101643.81;5006516;28;20061;-78
2022/06/18 02:41:14;;;;;;;6.82;4.15;;;;;;;20.00;64.99;101641.59;5011396;28;20049;-78
2022/06/18 02:43:42;;;;;;;8.88;4.05;;;;;;;19.96;64.59;101641.06;5015210;28;20113;-79
2022/06/18 02:46:08;;;;;;;6.60;3.88;;;;;;;19.95;64.61;101642.06;5012638;28;20022;-78
2022/06/18 02:48:36;;;;;;;5.28;4.00;;;;;;;19.88;64.96;101627.53;5014931;28;20033;-78
2022/06/18 02:51:02;;;;;;;5.53;3.97;;;;;;;19.89;64.73;101632.78;5012069;28;20034;-78
2022/06/18 02:53:29;;;;;;;6.28;3.90;;;;;;;19.88;65.11;101632.94;5015063;28;20088;-78
2022/06/18 02:55:58;;;;;;;7.40;3.95;;;;;;;19.83;64.81;101630.72;5015046;28;20026;-78
2022/06/18 02:58:25;;;;;;;;;;;;;;;19.95;62.27;101634.84;5002649;28;20033;-78
2022/06/18 03:00:59;;;;;;;10.60;4.70;;;;;;;19.79;65.54;101637.44;5015087;28;19915;-78
2022/06/18 03:03:27;;;;;;;4.65;4.10;;;;;;;19.76;65.62;101632.34;5014590;28;20040;-78
2022/06/18 03:05:53;;;;;;;9.07;4.15;;;;;;;19.78;65.59;101635.72;5014780;28;20053;-78
2022/06/18 03:08:23;;;;;;;4.85;4.10;;;;;;;19.70;65.33;101632.94;5014675;28;20018;-78
2022/06/18 03:13:36;;;;;;;7.43;4.78;;;;;;;19.70;65.29;101639.22;5014720;28;20048;-78
2022/06/18 03:16:04;;;;;;;13.75;5.03;;;;;;;19.65;65.84;101640.66;5014108;28;20425;-78
2022/06/18 03:18:31;;;;;;;9.13;4.82;;;;;;;19.64;66.19;101639.00;5004659;28;20434;-78
2022/06/18 03:21:13;;;;;;;8.50;4.78;;;;;;;19.64;65.65;101647.09;5011586;28;20084;-78
2022/06/18 03:23:39;;;;;;;9.35;4.93;;;;;;;19.61;66.26;101642.84;5015596;28;20057;-78
2022/06/18 03:26:04;;;;;;;8.90;4.53;;;;;;;19.60;66.08;101647.41;5014901;28;20022;-78
2022/06/18 03:28:29;;;;;;;7.80;4.93;;;;;;;19.62;66.55;101638.28;5015225;28;20034;-78
2022/06/18 03:30:55;;;;;;;10.27;4.75;;;;;;;19.61;66.47;101645.53;5013509;28;20306;-78
2022/06/18 03:33:21;;;;;;;6.35;4.53;;;;;;;19.56;65.88;101645.16;5012920;28;20033;-79
2022/06/18 03:35:48;;;;;;;8.48;4.82;;;;;;;19.57;66.79;101644.16;5014897;28;20045;-78
2022/06/18 03:38:15;;;;;;;9.38;5.00;;;;;;;19.54;66.67;101647.19;5013083;28;20056;-78
2022/06/18 03:40:41;;;;;;;10.30;4.85;;;;;;;19.54;67.41;101645.31;5015154;28;20474;-78
2022/06/18 03:43:07;;;;;;;9.18;4.72;;;;;;;19.54;67.02;101652.56;5014399;28;20038;-78
2022/06/18 03:45:39;;;;;;;5.53;4.63;;;;;;;19.52;67.23;101651.88;5014429;28;20028;-78
2022/06/18 03:48:05;;;;;;;6.88;4.25;;;;;;;19.53;67.08;101650.84;5014567;28;20088;-78
2022/06/18 03:50:30;;;;;;;6.55;4.72;;;;;;;19.52;66.69;101651.88;5014577;28;20393;-78
2022/06/18 03:52:56;;;;;;;10.93;5.28;;;;;;;19.52;66.93;101655.41;5014095;28;20097;-78
2022/06/18 03:55:21;;;;;;;7.27;4.70;;;;;;;19.52;66.76;101647.31;5014213;28;20030;-78
2022/06/18 03:57:46;;;;;;;6.60;4.70;;;;;;;19.52;67.68;101644.63;5010849;28;20749;-78
2022/06/18 04:00:19;;;;;;;8.57;4.60;;;;;;;19.52;67.30;101643.78;5004299;28;20287;-78
2022/06/18 04:02:45;;;;;;;6.88;4.60;;;;;;;19.52;68.34;101641.09;5012383;28;20437;-78
2022/06/18 04:05:11;;;;;;;8.25;4.85;;;;;;;19.51;68.11;101645.63;5014394;28;20038;-78
2022/06/18 04:07:37;;;;;;;10.13;5.03;;;;;;;19.51;68.73;101642.94;5014494;28;20081;-78
2022/06/18 04:10:03;;;;;;;7.28;5.15;;;;;;;19.52;68.57;101638.41;5014376;28;20425;-78
2022/06/18 04:12:29;;;;;;;7.38;4.72;;;;;;;19.52;68.53;101635.72;4996707;28;20381;-78
2022/06/18 04:14:54;;;;;;;10.88;4.95;;;;;;;19.56;68.48;101637.06;4996736;28;20034;-79
2022/06/18 04:17:21;;;;;;;8.95;6.28;;;;;;;19.58;67.69;101629.69;5014040;28;20030;-78
2022/06/18 04:19:46;;;;;;;7.43;5.47;;;;;;;19.57;68.53;101630.69;5014197;28;20053;-78
2022/06/18 04:22:11;;;;;;;10.15;5.10;;;;;;;19.60;68.50;101624.97;5011615;28;20481;-78
2022/06/18 04:24:36;;;;;;;10.07;5.18;;;;;;;19.65;68.07;101632.59;5014056;28;20429;-78
2022/06/18 04:27:02;;;;;;;8.30;4.97;;;;;;;19.65;68.47;101628.06;5014026;28;20068;-78
2022/06/18 04:29:31;;;;;;;10.93;6.10;;;;;;;19.67;68.23;101631.44;5014071;28;20289;-78
2022/06/18 04:31:56;;;;;;;8.23;5.55;;;;;;;19.66;68.93;101634.28;5014149;28;20057;-78
2022/06/18 04:34:22;;;;;;;6.60;5.50;;;;;;;19.68;68.55;101630.41;5013723;28;20068;-78
2022/06/18 04:36:47;;;;;;;14.75;5.50;;;;;;;19.73;68.18;101633.50;5010533;28;20038;-78
2022/06/18 04:39:13;;;;;;;9.85;5.75;;;;;;;19.76;69.22;101641.28;5008610;28;20026;-78
2022/06/18 04:41:39;;;;;;;8.63;5.32;;;;;;;19.80;67.77;101630.19;5011489;28;20025;-78
2022/06/18 04:44:05;;;;;;;8.20;5.82;;;;;;;19.82;68.44;101629.03;5013312;28;20052;-78
2022/06/18 04:46:30;;;;;;;9.15;6.03;;;;;;;19.87;67.69;101637.50;5000769;28;20022;-78
2022/06/18 04:48:56;;;;;;;9.95;5.72;;;;;;;19.94;68.18;101630.44;5013504;28;20470;-78
2022/06/18 04:51:22;;;;;;;12.77;6.00;;;;;;;19.98;68.13;101630.97;5012513;28;20026;-78
2022/06/18 04:53:47;;;;;;;12.57;6.28;;;;;;;20.05;67.32;101632.03;5009241;28;20030;-78
2022/06/18 04:56:13;;;;;;;11.20;5.93;;;;;;;20.09;67.85;101633.38;5009359;28;20026;-78
2022/06/18 04:58:38;;;;;;;10.82;5.90;;;;;;;20.15;68.00;101632.75;5013411;28;20022;-78
2022/06/18 05:01:04;;;;;;;8.43;5.68;;;;;;;20.21;67.93;101641.22;4994546;28;20030;-78
2022/06/18 05:03:29;;;;;;;9.23;5.47;;;;;;;20.31;67.55;101628.44;5013822;28;20036;-78
2022/06/18 05:05:56;;;;;;;10.07;6.38;;;;;;;20.37;66.85;101627.78;5013456;28;20082;-78
2022/06/18 05:08:21;;;;;;;10.10;6.47;;;;;;;20.45;67.16;101643.13;5013679;28;20065;-78
2022/06/18 05:10:47;;;;;;;7.47;6.25;;;;;;;20.54;66.88;101633.25;4995678;28;20046;-78
2022/06/18 05:13:12;;;;;;;9.02;5.70;;;;;;;20.64;67.05;101628.56;5013448;28;20041;-78
2022/06/18 05:15:40;;;;;;;9.05;6.10;;;;;;;20.73;66.87;101634.84;5013506;28;20034;-78
2022/06/18 05:18:06;;;;;;;8.73;6.05;;;;;;;20.79;66.66;101629.63;5002484;28;20454;-79
2022/06/18 05:20:31;;;;;;;11.40;6.03;;;;;;;20.88;66.09;101642.13;5013354;28;20030;-78
2022/06/18 05:22:56;;;;;;;10.77;6.15;;;;;;;20.94;65.68;101640.63;5013388;28;20026;-78
2022/06/18 05:25:22;;;;;;;9.75;6.20;;;;;;;21.02;65.52;101642.50;5013521;28;20532;-78
2022/06/18 05:27:47;;;;;;;11.00;6.40;;;;;;;21.11;65.87;101648.75;5009511;28;20026;-78
2022/06/18 05:30:21;;;;;;;8.32;6.20;;;;;;;21.18;64.70;101653.31;5007890;28;20100;-78
2022/06/18 05:32:47;;;;;;;12.00;6.25;;;;;;;21.31;65.17;101646.56;5013489;28;20025;-78
2022/06/18 05:35:14;;;;;;;9.50;6.30;;;;;;;21.44;64.86;101646.88;5013324;28;20380;-78
2022/06/18 05:37:39;;;;;;;9.18;6.30;;;;;;;21.52;65.22;101652.31;4995731;28;20369;-78
2022/06/18 05:40:06;;;;;;;12.88;6.82;;;;;;;21.68;64.22;101661.44;5013146;28;20101;-78
2022/06/18 05:42:32;;;;;;;9.07;6.50;;;;;;;21.79;64.53;101659.22;5012831;28;20029;-78
2022/06/18 05:44:57;;;;;;;13.75;6.53;;;;;;;21.91;64.43;101659.69;5012972;28;20485;-78
2022/06/18 05:47:30;;;;;;;9.88;5.80;;;;;;;22.09;63.15;101654.06;5012930;28;20089;-78
2022/06/18 05:49:56;;;;;;;8.68;5.82;;;;;;;22.22;62.97;101655.41;5012945;28;20050;-78
2022/06/18 05:52:22;;;;;;;12.85;6.20;;;;;;;22.32;62.63;101661.47;5006008;28;20060;-79
2022/06/18 05:54:51;;;;;;;9.10;6.30;;;;;;;22.45;60.42;101655.47;5007643;28;20042;-77
2022/06/18 05:57:17;;;;;;;9.18;6.05;;;;;;;22.56;60.76;101659.66;5000013;28;20091;-78
2022/06/18 05:59:42;;;;;;;11.13;5.97;;;;;;;22.66;61.02;101657.59;5013810;28;20049;-79
2022/06/18 06:02:11;;;;;;;14.23;6.07;;;;;;;22.91;60.20;101650.16;5016823;28;20113;-78
2022/06/18 06:04:39;;;;;;;12.43;6.20;;;;;;;23.00;59.69;101657.22;5016048;28;20061;-78
2022/06/18 06:07:05;;;;;;;9.57;5.60;;;;;;;23.20;59.22;101654.91;5018943;28;20434;-79
2022/06/18 06:12:14;;;;;;;11.93;6.00;;;;;;;23.53;57.80;101643.78;5015736;28;20548;-80
2022/06/18 06:14:41;;;;;;;11.65;5.85;;;;;;;23.61;56.63;101642.84;5016315;28;20116;-79
2022/06/18 06:17:13;;;;;;;17.63;5.65;;;;;;;23.82;56.08;101636.72;4999225;28;20402;-79
2022/06/18 06:19:38;;;;;;;11.98;5.57;;;;;;;24.00;55.42;101636.38;5009533;28;20402;-79
2022/06/18 06:22:04;;;;;;;11.65;5.13;;;;;;;24.16;54.61;101633.47;4998523;28;20026;-78
2022/06/18 06:24:29;;;;;;;9.20;5.40;;;;;;;24.37;54.87;101635.38;5019221;28;20429;-79
2022/06/18 06:26:55;;;;;;;11.97;5.40;;;;;;;24.47;54.56;101632.38;5025390;28;20289;-80
2022/06/18 06:29:20;;;;;;;10.88;5.38;;;;;;;24.61;52.87;101635.28;5014219;28;20289;-79
2022/06/18 06:31:45;;;;;;;12.60;4.87;;;;;;;24.78;52.46;101631.31;5008145;28;20027;-79
2022/06/18 06:34:11;;;;;;;11.70;4.80;;;;;;;24.96;52.58;101632.72;4997504;28;20642;-79
2022/06/18 06:36:36;;;;;;;13.10;5.70;;;;;;;25.01;50.64;101635.69;5016901;28;20293;-79
2022/06/18 06:39:02;;;;;;;11.83;5.87;;;;;;;25.12;51.71;101638.75;5011789;28;20661;-80
2022/06/18 06:41:30;;;;;;;14.80;5.55;;;;;;;25.24;52.01;101630.06;5000414;28;20317;-80
2022/06/18 06:43:55;;;;;;;11.48;5.40;;;;;;;25.43;50.39;101631.28;5015245;28;20021;-79
2022/06/18 06:46:20;;;;;;;11.05;5.30;;;;;;;25.40;49.70;101634.44;5016717;28;20060;-79
2022/06/18 06:48:46;;;;;;;14.10;5.75;;;;;;;25.62;49.53;101638.75;5015838;28;20061;-80
2022/06/18 06:51:14;;;;;;;11.18;5.40;;;;;;;25.71;48.44;101631.28;4998628;28;20114;-79
2022/06/18 06:53:40;;;;;;;12.23;5.18;;;;;;;25.89;48.67;101633.50;5016075;28;20040;-79
2022/06/18 06:58:52;;;;;;;10.20;5.78;;;;;;;26.17;48.29;101633.47;5015238;28;20505;-79
2022/06/18 07:01:17;;;;;;;15.60;6.05;;;;;;;26.36;48.32;101634.63;4999840;28;20049;-79
2022/06/18 07:03:42;;;;;;;15.50;5.23;;;;;;;26.63;48.75;101639.31;5016024;28;20026;-79
2022/06/18 07:06:08;;;;;;;13.17;4.90;;;;;;;26.82;47.80;101644.00;5014987;28;20288;-79
2022/06/18 07:08:34;;;;;;;15.93;5.15;;;;;;;26.91;47.20;101640.06;5015038;28;20620;-79
2022/06/18 07:11:00;;;;;;;18.85;5.95;;;;;;;27.10;47.37;101645.75;5020900;28;20109;-79
2022/06/18 07:13:26;;;;;;;11.20;4.90;;;;;;;27.16;47.24;101641.34;5019716;28;20030;-79
2022/06/18 07:15:51;;;;;;;10.30;5.32;;;;;;;27.33;46.26;101634.47;5018564;28;20363;-80
2022/06/18 07:18:23;;;;;;;13.07;5.22;;;;;;;27.49;46.82;101642.19;5017719;28;20127;-79
2022/06/18 07:20:48;;;;;;;12.13;4.90;;;;;;;27.74;45.51;101638.81;5016920;28;20152;-80
2022/06/18 07:23:14;;;;;;;16.05;4.53;;;;;;;27.96;45.73;101635.84;5016316;28;20050;-79
2022/06/18 07:25:40;;;;;;;13.50;4.80;;;;;;;27.99;45.48;101646.34;5016877;28;20108;-80
2022/06/18 07:28:05;;;;;;;12.95;5.10;;;;;;;28.23;44.25;101625.69;5016303;28;20030;-79
2022/06/18 07:30:31;;;;;;;15.50;5.20;;;;;;;28.40;43.27;101628.78;5011024;28;20024;-79
2022/06/18 07:32:56;;;;;;;11.57;4.35;;;;;;;28.72;43.09;101624.19;5023767;28;20478;-79
2022/06/18 07:35:28;;;;;;;8.97;4.67;;;;;;;28.77;43.58;101624.38;5018288;28;20089;-79
2022/06/18 07:37:56;;;;;;;14.30;4.57;;;;;;;28.86;43.18;101613.19;5017352;28;20029;-79
2022/06/18 07:40:22;;;;;;;11.27;4.63;;;;;;;29.10;43.17;101619.75;5018103;28;20026;-80
2022/06/18 07:42:52;;;;;;;13.60;4.40;;;;;;;29.19;42.88;101621.16;5018532;28;20669;-80
2022/06/18 07:45:24;;;;;;;13.98;4.43;;;;;;;29.31;42.30;101619.41;4996111;28;20525;-79
2022/06/18 07:47:49;;;;;;;13.10;4.65;;;;;;;29.51;41.50;101623.81;5004628;28;20030;-78
2022/06/18 07:50:17;;;;;;;11.48;4.35;;;;;;;29.84;41.49;101620.81;5016515;28;20026;-79
2022/06/18 07:52:44;;;;;;;14.68;5.03;;;;;;;29.96;41.10;101622.78;5012818;28;20029;-79
2022/06/18 07:55:22;;;;;;;13.75;4.53;;;;;;;30.33;42.33;101611.81;5008595;28;20037;-79
2022/06/18 07:57:49;;;;;;;16.05;4.72;;;;;;;30.46;39.62;101617.13;5014362;28;20495;-79
2022/06/18 08:00:17;;;;;;;9.75;4.32;;;;;;;30.51;40.43;101605.44;5012774;28;20030;-79
2022/06/18 08:02:43;;;;;;;9.27;4.35;;;;;;;30.69;38.70;101610.06;5014197;28;20084;-80
2022/06/18 08:05:11;;;;;;;12.57;4.97;;;;;;;30.75;38.83;101606.38;5010401;28;20519;-80
2022/06/18 08:07:37;;;;;;;12.02;4.32;;;;;;;31.00;38.29;101600.75;5013594;28;20030;-80
2022/06/18 08:10:04;;;;;;;14.57;4.72;;;;;;;30.97;38.86;101602.03;4994200;28;20034;-80
2022/06/18 08:12:31;;;;;;;14.63;4.90;;;;;;;31.10;38.43;101602.91;5010845;28;20367;-80
2022/06/18 08:14:58;;;;;;;13.88;4.63;;;;;;;31.28;38.14;101593.75;5010260;28;20025;-79
2022/06/18 08:17:25;;;;;;;9.45;4.32;;;;;;;31.59;38.53;101595.28;5010680;28;20470;-79
2022/06/18 08:19:50;;;;;;;15.98;4.88;;;;;;;31.90;37.69;101594.06;5015234;28;20034;-80
2022/06/18 08:22:16;;;;;;;9.65;4.28;;;;;;;31.84;38.59;101589.56;5011460;28;20026;-81
2022/06/18 08:24:41;;;;;;;12.35;4.20;;;;;;;32.04;37.39;101589.13;5019662;28;20035;-80
2022/06/18 08:27:07;;;;;;;9.88;4.05;;;;;;;32.25;35.89;101584.06;5023285;28;20077;-80
2022/06/18 08:29:34;;;;;;;12.18;4.57;;;;;;;32.18;37.30;101578.72;5016791;28;20038;-80
2022/06/18 08:32:00;;;;;;;13.88;4.63;;;;;;;32.42;36.66;101581.38;5014817;28;20084;-80
2022/06/18 08:34:25;;;;;;;15.25;5.20;;;;;;;32.52;36.64;101572.47;5013810;28;20054;-80
2022/06/18 08:36:50;;;;;;;9.23;3.70;;;;;;;32.79;36.44;101569.94;5016009;28;20037;-80
2022/06/18 08:39:16;;;;;;;15.55;4.47;;;;;;;32.89;36.32;101572.03;5013668;28;20026;-80
2022/06/18 08:41:58;;;;;;;11.20;3.92;;;;;;;33.11;36.41;101570.22;5017010;28;20034;-80
2022/06/18 08:45:00;;;;;;;12.93;4.60;;;;;;;33.14;36.26;101572.47;5014050;28;20033;-82
2022/06/18 08:47:58;;;;;;;14.95;4.70;;;;;;;33.35;35.79;101573.63;5013017;28;20034;-81
2022/06/18 08:50:38;;;;;;;12.35;4.13;;;;;;;33.48;34.61;101577.13;4990966;28;20030;-81
2022/06/18 08:53:22;;;;;;;12.77;4.10;;;;;;;33.74;35.07;101578.31;4999247;28;20022;-81
2022/06/18 08:56:02;;;;;;;13.85;4.30;;;;;;;33.60;34.55;101583.34;5008390;28;20041;-81
2022/06/18 08:58:52;;;;;;;13.82;3.90;;;;;;;33.98;35.16;101578.91;5013201;28;20022;-81
2022/06/18 09:01:27;;;;;;;11.68;4.20;;;;;;;34.10;34.38;101579.56;5013082;28;20045;-81
2022/06/18 09:04:27;;;;;;;13.00;3.63;;;;;;;34.07;34.06;101577.34;5013250;28;20374;-81
2022/06/18 09:07:13;;;;;;;13.25;3.97;;;;;;;34.24;33.56;101584.72;5005184;28;20080;-81
2022/06/18 09:09:54;;;;;;;13.70;4.50;;;;;;;34.31;33.80;101579.84;5011974;28;21391;-82
2022/06/18 09:12:35;;;;;;;14.18;4.50;;;;;;;34.77;32.27;101580.31;5013553;28;20422;-81
2022/06/18 09:15:11;;;;;;;9.82;4.05;;;;;;;34.85;33.33;101584.53;5012988;28;20030;-81
2022/06/18 09:17:45;;;;;;;17.00;4.20;;;;;;;35.12;32.06;101580.88;5013884;28;20045;-81
2022/06/18 09:20:17;;;;;;;16.15;5.07;;;;;;;34.72;32.09;101579.41;5013199;28;20022;-81
2022/06/18 09:22:54;;;;;;;13.02;4.47;;;;;;;35.01;32.63;101577.22;5003739;28;20360;-81
2022/06/18 09:25:27;;;;;;;17.90;5.15;;;;;;;34.95;31.54;101586.53;5012568;28;20021;-81
2022/06/18 09:28:03;;;;;;;13.57;4.50;;;;;;;35.17;32.54;101590.03;5010838;28;20057;-81
2022/06/18 09:30:34;;;;;;;15.75;4.70;;;;;;;35.51;32.65;101586.94;5012967;28;20029;-81
2022/06/18 09:33:07;;;;;;;14.27;4.80;;;;;;;35.34;31.46;101587.13;5016581;28;20038;-80
2022/06/18 09:35:41;;;;;;;16.05;5.20;;;;;;;35.26;33.02;101582.09;5016777;28;20050;-81
2022/06/18 09:38:28;;;;;;;13.80;5.30;;;;;;;35.32;32.25;101578.25;5017048;28;20033;-80
2022/06/18 09:40:57;;;;;;;16.27;5.60;;;;;;;35.41;30.95;101581.38;5016738;28;20036;-80
2022/06/18 09:43:28;;;;;;;19.83;6.50;;;;;;;35.49;32.26;101580.88;5012184;28;20084;-81
2022/06/18 09:45:58;;;;;;;15.65;5.07;;;;;;;35.64;30.79;101569.06;5010088;28;20025;-81
2022/06/18 09:48:23;;;;;;;11.77;5.20;;;;;;;35.76;30.12;101571.63;5011202;28;20375;-80
2022/06/18 09:50:54;;;;;;;15.93;4.78;;;;;;;35.78;30.26;101563.91;5015936;28;20029;-81
2022/06/18 09:53:27;;;;;;;14.43;4.95;;;;;;;35.82;30.46;101556.72;5015985;28;20467;-81
2022/06/18 09:55:57;;;;;;;18.25;5.63;;;;;;;35.93;30.01;101563.13;5016048;28;20121;-80
2022/06/18 09:58:35;;;;;;;17.80;5.68;;;;;;;36.13;29.76;101556.81;5015565;28;20025;-81
2022/06/18 10:01:01;;;;;;;12.27;5.53;;;;;;;36.36;29.83;101557.44;5017310;28;20052;-81
2022/06/18 10:09:11;;;;;;;13.35;4.53;;;;;;;37.07;29.13;101555.81;5015538;28;20041;-81
2022/06/18 10:11:39;;;;;;;14.88;5.03;;;;;;;37.33;28.88;101545.56;5008867;28;20113;-81
2022/06/18 10:14:10;;;;;;;11.55;4.88;;;;;;;37.06;28.84;101546.69;5009913;28;20030;-80
2022/06/18 10:16:50;;;;;;;17.23;5.53;;;;;;;37.02;28.94;101549.19;5015620;28;20060;-81
2022/06/18 10:19:49;;;;;;;15.88;5.65;;;;;;;37.27;28.45;101546.66;5015740;28;20049;-81
2022/06/18 10:22:48;;;;;;;16.08;4.45;;;;;;;37.48;29.22;101539.94;5016823;28;20080;-81
2022/06/18 10:25:18;;;;;;;13.48;5.22;;;;;;;37.35;28.62;101532.25;5031126;28;20033;-82
2022/06/18 10:28:06;;;;;;;18.02;4.40;;;;;;;37.61;29.38;101535.75;5031183;28;20164;-83
2022/06/18 10:30:48;;;;;;;14.02;4.28;;;;;;;37.54;28.70;101529.66;5016513;28;20056;-83
2022/06/18 10:33:27;;;;;;;16.92;4.28;;;;;;;37.78;28.18;101529.88;5012508;28;20037;-83
2022/06/18 10:36:16;;;;;;;14.88;4.55;;;;;;;37.80;28.58;101535.97;5016386;28;20045;-82
2022/06/18 10:39:00;;;;;;;12.45;4.00;;;;;;;37.68;28.48;101522.44;5014494;28;20029;-82
2022/06/18 10:41:35;;;;;;;13.30;4.28;;;;;;;37.22;27.50;101522.56;5014782;28;20076;-82
2022/06/18 10:44:28;;;;;;;17.58;4.30;;;;;;;37.67;28.61;101515.22;5015762;28;20022;-82
2022/06/18 10:47:15;;;;;;;16.77;4.78;;;;;;;37.67;28.55;101517.16;5010126;28;20030;-82
2022/06/18 10:49:40;;;;;;;15.82;4.40;;;;;;;37.54;27.63;101507.50;5015701;28;20025;-82
2022/06/18 10:52:17;;;;;;;10.48;4.00;;;;;;;37.81;27.85;101512.69;5015381;28;20478;-82
2022/06/18 10:54:42;;;;;;;12.25;4.03;;;;;;;38.16;27.62;101508.06;5009026;28;20026;-83
2022/06/18 10:57:21;;;;;;;15.75;4.28;;;;;;;38.23;28.89;101510.50;4994872;28;20092;-81
2022/06/18 10:59:47;;;;;;;15.13;4.18;;;;;;;37.98;27.33;101503.97;5012064;28;20022;-84
2022/06/18 11:02:28;;;;;;;15.57;4.22;;;;;;;38.36;27.91;101497.94;5009830;28;20549;-81
2022/06/18 11:05:00;;;;;;;10.45;4.20;;;;;;;38.45;27.11;101497.00;5010826;28;20029;-81
2022/06/18 11:07:29;;;;;;;15.23;4.43;;;;;;;38.27;25.90;101492.16;5006764;28;20033;-81
2022/06/18 11:10:01;;;;;;;13.43;4.05;;;;;;;38.28;26.75;101491.03;5012850;28;20422;-82
2022/06/18 11:12:31;;;;;;;13.27;4.40;;;;;;;38.59;26.35;101483.31;5015083;28;20343;-81
2022/06/18 11:14:58;;;;;;;11.32;4.05;;;;;;;38.65;27.48;101482.13;4996996;28;20574;-81
2022/06/18 11:17:41;;;;;;;11.70;4.18;;;;;;;38.81;27.42;101479.22;5014895;28;20034;-82
2022/06/18 11:20:19;;;;;;;17.05;4.45;;;;;;;38.69;26.97;101476.84;5012742;28;20121;-82
2022/06/18 11:22:52;;;;;;;11.07;3.92;;;;;;;39.03;27.94;101464.81;5015017;28;20673;-82
2022/06/18 11:25:45;;;;;;;15.18;4.25;;;;;;;39.13;27.38;101456.38;5006950;28;20015;-83
2022/06/18 11:28:20;;;;;;;11.80;4.30;;;;;;;39.15;26.78;101456.91;5009932;28;20690;-82
2022/06/18 11:30:47;;;;;;;13.32;4.38;;;;;;;38.81;25.49;101455.03;5014414;28;20045;-82
2022/06/18 11:33:42;;;;;;;11.85;4.30;;;;;;;39.08;26.81;101447.28;5013816;28;20034;-83
2022/06/18 11:36:16;;;;;;;16.30;4.40;;;;;;;39.47;26.48;101444.28;5005404;28;20037;-81
2022/06/18 11:38:52;;;;;;;14.05;4.20;;;;;;;39.20;26.25;101444.91;4997398;28;20025;-81
2022/06/18 11:41:23;;;;;;;16.02;4.57;;;;;;;39.03;25.52;101439.81;5014440;28;20109;-81
2022/06/18 11:43:57;;;;;;;12.75;4.15;;;;;;;39.23;25.28;101433.19;5010794;28;20101;-80
2022/06/18 11:46:31;;;;;;;13.40;4.38;;;;;;;39.34;26.30;101425.53;5007911;28;20042;-80
2022/06/18 11:49:07;;;;;;;15.10;4.43;;;;;;;39.23;26.04;101441.53;4998836;28;20485;-80
2022/06/18 11:51:45;;;;;;;21.30;4.68;;;;;;;38.88;26.93;101431.66;5017776;28;20084;-80